sensor_id;sensor_type;location;lat;lon;timestamp;pressure;altitude;pressure_sealevel;temperature;humidity
56594;BME280;42474;51.660;5.824;2023-05-20T11:50:08;1020.2;;;22.3;40.5
56594;BME280;42474;51.660;5.824;2023-05-20T13:14:09;1019.8;;;22.8;40
56594;BME280;42474;51.660;5.824;2023-05-20T13:18:08;1019.8;;;22.6;40
56594;BME280;42474;51.660;5.824;2023-05-20T13:22:08;1019.8;;;22.6;40
56594;BME280;42474;51.660;5.824;2023-05-20T13:26:08;1019.7;;;22.6;40
56594;BME280;42474;51.660;5.824;2023-05-20T13:30:08;1019.7;;;22.7;40.5
56594;BME280;42474;51.660;5.824;2023-05-20T13:38:08;1019.6;;;22.9;40
56594;BME280;42474;51.660;5.824;2023-05-20T13:42:08;1019.5;;;22.9;40
56594;BME280;42474;51.660;5.824;2023-05-20T13:46:08;1019.5;;;22.9;40
56594;BME280;42474;51.660;5.824;2023-05-20T13:50:08;1019.4;;;22.8;39.5
56594;BME280;42474;51.660;5.824;2023-05-20T14:10:08;1019.1;;;23;39
56594;BME280;42474;51.660;5.824;2023-05-20T14:14:08;1019.1;;;22.9;39.5
56594;BME280;42474;51.660;5.824;2023-05-20T14:18:08;1019;;;22.9;39.5
56594;BME280;42474;51.660;5.824;2023-05-20T14:22:08;1019;;;22.9;39.5
56594;BME280;42474;51.660;5.824;2023-05-20T14:26:08;1018.9;;;22.9;39.5
56594;BME280;42474;51.660;5.824;2023-05-20T14:30:08;1018.9;;;22.9;39.5
56594;BME280;42474;51.660;5.824;2023-05-20T14:34:08;1018.9;;;22.8;39
56594;BME280;42474;51.660;5.824;2023-05-20T14:38:08;1018.9;;;22.7;39.5
56594;BME280;42474;51.660;5.824;2023-05-20T14:42:08;1018.8;;;22.7;39.5
56594;BME280;42474;51.660;5.824;2023-05-20T14:46:08;1018.8;;;22.8;40
56594;BME280;42474;51.660;5.824;2023-05-20T15:02:08;1018.7;;;22.7;39.5
56594;BME280;42474;51.660;5.824;2023-05-20T15:06:08;1018.6;;;22.7;39.5
56594;BME280;42474;51.660;5.824;2023-05-20T15:10:08;1018.6;;;22.9;39.5
56594;BME280;42474;51.660;5.824;2023-05-20T15:14:08;1018.4;;;23.1;39.5
56594;BME280;42474;51.660;5.824;2023-05-20T15:18:08;1018.4;;;23.5;39.5
56594;BME280;42474;51.660;5.824;2023-05-20T15:22:08;1018.4;;;23.6;38
56594;BME280;42474;51.660;5.824;2023-05-20T15:26:08;1018.5;;;23.5;37.5
56594;BME280;42474;51.660;5.824;2023-05-20T15:30:08;1018.5;;;23.4;38
56594;BME280;42474;51.660;5.824;2023-05-20T15:34:08;1018.4;;;23.3;37.5
56594;BME280;42474;51.660;5.824;2023-05-20T15:38:08;1018.4;;;23.1;38
56594;BME280;42474;51.660;5.824;2023-05-20T15:42:08;1018.3;;;23.3;38
56594;BME280;42474;51.660;5.824;2023-05-20T15:46:08;1018.2;;;23.7;37.5
56594;BME280;42474;51.660;5.824;2023-05-20T15:50:08;1018.2;;;23.9;36.5
56594;BME280;42474;51.660;5.824;2023-05-20T15:54:08;1018.2;;;23.9;37
56594;BME280;42474;51.660;5.824;2023-05-20T15:58:08;1018.2;;;23.8;36.5
56594;BME280;42474;51.660;5.824;2023-05-20T16:02:08;1018.3;;;23.5;37
56594;BME280;42474;51.660;5.824;2023-05-20T16:06:09;1018.3;;;23;37
56594;BME280;42474;51.660;5.824;2023-05-20T16:10:09;1018.3;;;22.8;38
56594;BME280;42474;51.660;5.824;2023-05-20T16:14:08;1018.2;;;23;38.5
56594;BME280;42474;51.660;5.824;2023-05-20T16:18:08;1018.2;;;23.2;38
56594;BME280;42474;51.660;5.824;2023-05-20T16:22:08;1018.1;;;23.3;37.5
56594;BME280;42474;51.660;5.824;2023-05-20T16:26:08;1018.1;;;23.4;38
56594;BME280;42474;51.660;5.824;2023-05-20T16:30:09;1018.2;;;23.6;37.5
56594;BME280;42474;51.660;5.824;2023-05-20T16:42:08;1018.1;;;23.1;38
56594;BME280;42474;51.660;5.824;2023-05-20T16:46:08;1018.1;;;22.9;38
56594;BME280;42474;51.660;5.824;2023-05-20T16:50:08;1018.2;;;22.9;38.5
56594;BME280;42474;51.660;5.824;2023-05-20T16:54:08;1018.2;;;22.7;38
56594;BME280;42474;51.660;5.824;2023-05-20T16:58:08;1018.3;;;22.5;38.5
56594;BME280;42474;51.660;5.824;2023-05-20T17:02:08;1018.3;;;22.3;38.5
56594;BME280;42474;51.660;5.824;2023-05-20T17:06:08;1018.4;;;22.3;38.5
56594;BME280;42474;51.660;5.824;2023-05-20T17:10:08;1018.4;;;22.1;38.5
56594;BME280;42474;51.660;5.824;2023-05-20T17:14:08;1018.3;;;22.2;38.5
56594;BME280;42474;51.660;5.824;2023-05-20T17:18:08;1018.3;;;22.4;39
56594;BME280;42474;51.660;5.824;2023-05-20T17:22:08;1018.3;;;22.5;39
56594;BME280;42474;51.660;5.824;2023-05-20T17:26:08;1018.4;;;22.6;38.5
56594;BME280;42474;51.660;5.824;2023-05-20T17:30:08;1018.5;;;22.4;38.5
56594;BME280;42474;51.660;5.824;2023-05-20T17:34:08;1018.6;;;22.3;38.5
56594;BME280;42474;51.660;5.824;2023-05-20T17:38:08;1018.6;;;22.3;38.5
56594;BME280;42474;51.660;5.824;2023-05-20T17:42:08;1018.6;;;22.3;39
56594;BME280;42474;51.660;5.824;2023-05-20T17:46:08;1018.6;;;22.1;39
56594;BME280;42474;51.660;5.824;2023-05-20T17:50:08;1018.6;;;22;39.5
56594;BME280;42474;51.660;5.824;2023-05-20T17:54:08;1018.7;;;21.8;39.5
56594;BME280;42474;51.660;5.824;2023-05-20T17:58:08;1018.7;;;21.7;39.5
56594;BME280;42474;51.660;5.824;2023-05-20T18:02:08;1018.7;;;21.5;40
56594;BME280;42474;51.660;5.824;2023-05-20T18:06:08;1018.7;;;21.3;40
56594;BME280;42474;51.660;5.824;2023-05-20T18:10:09;1018.7;;;21.1;40
56594;BME280;42474;51.660;5.824;2023-05-20T18:14:08;1018.7;;;20.9;40.5
56594;BME280;42474;51.660;5.824;2023-05-20T18:22:08;1018.6;;;20.7;41.5
56594;BME280;42474;51.660;5.824;2023-05-20T18:26:08;1018.6;;;20.6;41.5
56594;BME280;42474;51.660;5.824;2023-05-20T18:30:08;1018.5;;;20.7;41.5
56594;BME280;42474;51.660;5.824;2023-05-20T18:34:08;1018.5;;;20.7;41.5
56594;BME280;42474;51.660;5.824;2023-05-20T18:38:08;1018.5;;;20.6;42
56594;BME280;42474;51.660;5.824;2023-05-20T18:42:08;1018.5;;;20.5;42
56594;BME280;42474;51.660;5.824;2023-05-20T18:46:08;1018.6;;;20.5;42
56594;BME280;42474;51.660;5.824;2023-05-20T18:50:08;1018.6;;;20.5;42
56594;BME280;42474;51.660;5.824;2023-05-20T18:54:08;1018.6;;;20.4;42
56594;BME280;42474;51.660;5.824;2023-05-20T18:58:08;1018.6;;;20.4;42.5
56594;BME280;42474;51.660;5.824;2023-05-20T19:02:08;1018.7;;;20.3;42.5
56594;BME280;42474;51.660;5.824;2023-05-20T19:06:08;1018.7;;;20.3;42.5
56594;BME280;42474;51.660;5.824;2023-05-20T19:10:08;1018.6;;;20.1;42.5
56594;BME280;42474;51.660;5.824;2023-05-20T19:14:08;1018.7;;;20;42.5
56594;BME280;42474;51.660;5.824;2023-05-20T19:18:08;1018.7;;;19.8;43
56594;BME280;42474;51.660;5.824;2023-05-20T19:22:08;1018.8;;;19.6;43
56594;BME280;42474;51.660;5.824;2023-05-20T19:26:08;1018.8;;;19.4;43.5
56594;BME280;42474;51.660;5.824;2023-05-20T19:30:08;1018.8;;;19.3;44
56594;BME280;42474;51.660;5.824;2023-05-20T19:34:08;1018.8;;;19.1;44.5
56594;BME280;42474;51.660;5.824;2023-05-20T19:38:08;1018.8;;;19;44.5
56594;BME280;42474;51.660;5.824;2023-05-20T19:42:08;1018.9;;;18.9;44.5
56594;BME280;42474;51.660;5.824;2023-05-20T19:46:08;1018.9;;;18.7;45
56594;BME280;42474;51.660;5.824;2023-05-20T19:50:08;1018.9;;;18.6;45
56594;BME280;42474;51.660;5.824;2023-05-20T19:54:08;1018.9;;;18.5;45.5
56594;BME280;42474;51.660;5.824;2023-05-20T19:58:08;1018.9;;;18.4;46
56594;BME280;42474;51.660;5.824;2023-05-20T20:02:08;1019;;;18.3;46.5
56594;BME280;42474;51.660;5.824;2023-05-20T20:06:08;1018.9;;;18.2;46.5
56594;BME280;42474;51.660;5.824;2023-05-20T20:10:08;1018.9;;;18;47
56594;BME280;42474;51.660;5.824;2023-05-20T20:14:08;1018.9;;;18;47
56594;BME280;42474;51.660;5.824;2023-05-20T20:18:08;1018.9;;;17.9;47.5
56594;BME280;42474;51.660;5.824;2023-05-20T20:22:08;1019;;;17.8;48
56594;BME280;42474;51.660;5.824;2023-05-20T20:26:08;1019;;;17.7;48
56594;BME280;42474;51.660;5.824;2023-05-20T20:30:08;1018.9;;;17.7;47.5
56594;BME280;42474;51.660;5.824;2023-05-20T20:34:08;1018.9;;;17.7;48.5
56594;BME280;42474;51.660;5.824;2023-05-20T20:38:08;1018.9;;;17.6;48.5
56594;BME280;42474;51.660;5.824;2023-05-20T20:42:08;1018.9;;;17.6;48.5
56594;BME280;42474;51.660;5.824;2023-05-20T20:46:08;1018.9;;;17.6;49
56594;BME280;42474;51.660;5.824;2023-05-20T20:54:08;1018.9;;;17.6;49
56594;BME280;42474;51.660;5.824;2023-05-20T20:58:08;1018.9;;;17.6;49.5
56594;BME280;42474;51.660;5.824;2023-05-20T21:02:08;1019;;;17.5;49.5
56594;BME280;42474;51.660;5.824;2023-05-20T21:06:08;1019;;;17.5;49.5
56594;BME280;42474;51.660;5.824;2023-05-20T21:10:08;1019;;;17.4;50
56594;BME280;42474;51.660;5.824;2023-05-20T21:14:08;1018.9;;;17.3;50.5
56594;BME280;42474;51.660;5.824;2023-05-20T21:18:08;1018.8;;;17.3;50.5
56594;BME280;42474;51.660;5.824;2023-05-20T21:22:08;1018.8;;;17.2;50.5
56594;BME280;42474;51.660;5.824;2023-05-20T21:26:08;1018.8;;;17.2;50.5
56594;BME280;42474;51.660;5.824;2023-05-20T21:30:08;1018.8;;;17.1;51
56594;BME280;42474;51.660;5.824;2023-05-20T21:34:08;1018.8;;;17;51
56594;BME280;42474;51.660;5.824;2023-05-20T21:38:08;1018.7;;;16.9;51
56594;BME280;42474;51.660;5.824;2023-05-20T21:42:08;1018.6;;;16.8;51
56594;BME280;42474;51.660;5.824;2023-05-20T21:46:08;1018.6;;;16.7;51.5
56594;BME280;42474;51.660;5.824;2023-05-20T21:50:08;1018.5;;;16.7;51.5
56594;BME280;42474;51.660;5.824;2023-05-20T21:54:08;1018.5;;;16.6;52
56594;BME280;42474;51.660;5.824;2023-05-20T21:58:08;1018.5;;;16.5;53
56594;BME280;42474;51.660;5.824;2023-05-20T22:02:08;1018.6;;;16.4;52.5
56594;BME280;42474;51.660;5.824;2023-05-20T22:06:08;1018.5;;;16.4;53
56594;BME280;42474;51.660;5.824;2023-05-20T22:10:08;1018.6;;;16.3;53
56594;BME280;42474;51.660;5.824;2023-05-20T22:14:08;1018.6;;;16.3;53.5
56594;BME280;42474;51.660;5.824;2023-05-20T22:18:08;1018.5;;;16.2;53.5
56594;BME280;42474;51.660;5.824;2023-05-20T22:22:08;1018.5;;;16.2;53.5
56594;BME280;42474;51.660;5.824;2023-05-20T22:26:08;1018.5;;;16.1;54
56594;BME280;42474;51.660;5.824;2023-05-20T22:30:09;1018.5;;;16.1;54.5
56594;BME280;42474;51.660;5.824;2023-05-20T22:34:08;1018.5;;;16;55
56594;BME280;42474;51.660;5.824;2023-05-20T22:38:08;1018.4;;;16;55
56594;BME280;42474;51.660;5.824;2023-05-20T22:42:08;1018.4;;;16;55
56594;BME280;42474;51.660;5.824;2023-05-20T22:46:08;1018.3;;;15.9;55
56594;BME280;42474;51.660;5.824;2023-05-20T22:50:08;1018.3;;;15.9;55.5
56594;BME280;42474;51.660;5.824;2023-05-20T22:54:08;1018.3;;;15.9;56
56594;BME280;42474;51.660;5.824;2023-05-20T22:58:08;1018.2;;;15.8;55.5
56594;BME280;42474;51.660;5.824;2023-05-20T23:02:08;1018.2;;;15.8;56
56594;BME280;42474;51.660;5.824;2023-05-20T23:06:08;1018.1;;;15.8;56.5
56594;BME280;42474;51.660;5.824;2023-05-20T23:10:08;1018.1;;;15.7;56
56594;BME280;42474;51.660;5.824;2023-05-20T23:14:08;1018.1;;;15.7;56
56594;BME280;42474;51.660;5.824;2023-05-20T23:18:08;1018;;;15.6;56.5
56594;BME280;42474;51.660;5.824;2023-05-20T23:22:08;1018;;;15.6;56.5
56594;BME280;42474;51.660;5.824;2023-05-20T23:26:08;1018;;;15.6;56.5
56594;BME280;42474;51.660;5.824;2023-05-20T23:30:08;1018;;;15.5;56.5
56594;BME280;42474;51.660;5.824;2023-05-20T23:34:08;1018;;;15.4;57.5
56594;BME280;42474;51.660;5.824;2023-05-20T23:38:08;1017.9;;;15.4;57
56594;BME280;42474;51.660;5.824;2023-05-20T23:42:08;1017.9;;;15.3;57.5
56594;BME280;42474;51.660;5.824;2023-05-20T23:46:08;1017.9;;;15.3;58
56594;BME280;42474;51.660;5.824;2023-05-20T23:50:08;1017.8;;;15.3;58
56594;BME280;42474;51.660;5.824;2023-05-20T23:54:08;1017.8;;;15.2;58
56594;BME280;42474;51.660;5.824;2023-05-20T23:58:08;1017.8;;;15.2;58.5
